GIA75 WILL-WIII
Flight info
| Callsign | GIA75 |
|---|---|
| Flight time | 0h 25m |
| Altitude | 13500 |
| Route | TKG |
| Aircraft | B738/M-SDE2E3FGHIRWXY/LB1 |
Departure
| Time | 2026-04-25 03:47 |
|---|---|
| Airport | Radin Inten II International Airport (WILL) |
Arrival
| Time | 2026-04-25 04:12 |
|---|---|
| Airport | Soekarno-Hatta International Airport (WIII) |
| Time | Latitude | Longitude | Altitude | Speed | Heading |
|---|---|---|---|---|---|
| 2026-04-25 03:24 | -5.24258 | 105.17676 | 272 ft | 0 kts | 230° |
| 2026-04-25 03:40 | -5.24249 | 105.17687 | 272 ft | 3 kts | 230° |
| 2026-04-25 03:40 | -5.24236 | 105.17703 | 277 ft | 3 kts | 236° |
| 2026-04-25 03:41 | -5.24226 | 105.17720 | 276 ft | 3 kts | 256° |
| 2026-04-25 03:41 | -5.24225 | 105.17735 | 274 ft | 3 kts | 310° |
| 2026-04-25 03:41 | -5.24239 | 105.17748 | 275 ft | 3 kts | 319° |
| 2026-04-25 03:41 | -5.24248 | 105.17756 | 273 ft | 0 kts | 319° |
| 2026-04-25 03:43 | -5.24242 | 105.17751 | 274 ft | 5 kts | 319° |
| 2026-04-25 03:44 | -5.24199 | 105.17714 | 274 ft | 10 kts | 320° |
| 2026-04-25 03:44 | -5.24159 | 105.17718 | 272 ft | 6 kts | 31° |
| 2026-04-25 03:44 | -5.24119 | 105.17761 | 273 ft | 11 kts | 42° |
| 2026-04-25 03:44 | -5.24076 | 105.17762 | 273 ft | 5 kts | 318° |
| 2026-04-25 03:45 | -5.24028 | 105.17718 | 272 ft | 14 kts | 318° |
| 2026-04-25 03:45 | -5.23936 | 105.17641 | 272 ft | 20 kts | 320° |
| 2026-04-25 03:45 | -5.23824 | 105.17545 | 273 ft | 24 kts | 319° |
| 2026-04-25 03:45 | -5.23698 | 105.17435 | 270 ft | 19 kts | 312° |
| 2026-04-25 03:46 | -5.23646 | 105.17354 | 272 ft | 11 kts | 306° |
| 2026-04-25 03:46 | -5.23616 | 105.17352 | 270 ft | 4 kts | 45° |
| 2026-04-25 03:46 | -5.23617 | 105.17375 | 270 ft | 3 kts | 127° |
| 2026-04-25 03:46 | -5.23649 | 105.17401 | 270 ft | 11 kts | 139° |
| 2026-04-25 03:47 | -5.23747 | 105.17481 | 271 ft | 34 kts | 140° |
| 2026-04-25 03:47 | -5.24126 | 105.17803 | 273 ft | 108 kts | 139° |
| 2026-04-25 03:47 | -5.24857 | 105.18438 | 283 ft | 167 kts | 143° |
| 2026-04-25 03:47 | -5.25766 | 105.19207 | 900 ft | 177 kts | 135° |
| 2026-04-25 03:48 | -5.26686 | 105.20089 | 1623 ft | 188 kts | 136° |
| 2026-04-25 03:48 | -5.27659 | 105.20970 | 2402 ft | 195 kts | 131° |
| 2026-04-25 03:48 | -5.28609 | 105.22079 | 2721 ft | 223 kts | 127° |
| 2026-04-25 03:48 | -5.29618 | 105.23341 | 3147 ft | 239 kts | 127° |
| 2026-04-25 03:49 | -5.30692 | 105.24690 | 3583 ft | 258 kts | 127° |
| 2026-04-25 03:49 | -5.31848 | 105.26131 | 4269 ft | 268 kts | 127° |
| 2026-04-25 03:49 | -5.33022 | 105.27585 | 5238 ft | 268 kts | 127° |
| 2026-04-25 03:49 | -5.34211 | 105.29047 | 6108 ft | 273 kts | 127° |
| 2026-04-25 03:50 | -5.35424 | 105.30536 | 6944 ft | 276 kts | 127° |
| 2026-04-25 03:50 | -5.36628 | 105.32007 | 7772 ft | 279 kts | 127° |
| 2026-04-25 03:50 | -5.37869 | 105.33523 | 8569 ft | 282 kts | 127° |
| 2026-04-25 03:50 | -5.39129 | 105.35059 | 9388 ft | 286 kts | 128° |
| 2026-04-25 03:51 | -5.40403 | 105.36610 | 10139 ft | 291 kts | 128° |
| 2026-04-25 03:51 | -5.41729 | 105.38226 | 10483 ft | 312 kts | 128° |
| 2026-04-25 03:51 | -5.43160 | 105.39969 | 10659 ft | 335 kts | 128° |
| 2026-04-25 03:51 | -5.44687 | 105.41829 | 10975 ft | 351 kts | 128° |
| 2026-04-25 03:52 | -5.46261 | 105.43741 | 11553 ft | 357 kts | 128° |
| 2026-04-25 03:52 | -5.47849 | 105.45670 | 12229 ft | 360 kts | 128° |
| 2026-04-25 03:52 | -5.49444 | 105.47608 | 12971 ft | 358 kts | 128° |
| 2026-04-25 03:52 | -5.51036 | 105.49541 | 13317 ft | 359 kts | 128° |
| 2026-04-25 03:53 | -5.52635 | 105.51484 | 13398 ft | 369 kts | 128° |
| 2026-04-25 03:53 | -5.54303 | 105.53514 | 13412 ft | 385 kts | 128° |
| 2026-04-25 03:53 | -5.56044 | 105.55632 | 13416 ft | 399 kts | 128° |
| 2026-04-25 03:53 | -5.57828 | 105.57802 | 13405 ft | 404 kts | 128° |
| 2026-04-25 03:54 | -5.59625 | 105.59987 | 13404 ft | 406 kts | 128° |
| 2026-04-25 03:54 | -5.61424 | 105.62173 | 13401 ft | 405 kts | 128° |
| 2026-04-25 03:54 | -5.62611 | 105.63616 | 13394 ft | 405 kts | 128° |
| 2026-04-25 03:54 | -5.64984 | 105.66502 | 13403 ft | 404 kts | 128° |
| 2026-04-25 03:55 | -5.66772 | 105.68677 | 13402 ft | 404 kts | 128° |
| 2026-04-25 03:55 | -5.67984 | 105.70153 | 13401 ft | 404 kts | 128° |
| 2026-04-25 03:55 | -5.70352 | 105.73035 | 13405 ft | 404 kts | 128° |
| 2026-04-25 03:55 | -5.72136 | 105.75206 | 13404 ft | 404 kts | 128° |
| 2026-04-25 03:56 | -5.73321 | 105.76650 | 13403 ft | 404 kts | 128° |
| 2026-04-25 03:56 | -5.75114 | 105.78833 | 13406 ft | 405 kts | 128° |
| 2026-04-25 03:56 | -5.76908 | 105.81017 | 13403 ft | 405 kts | 128° |
| 2026-04-25 03:56 | -5.78699 | 105.83197 | 13410 ft | 405 kts | 128° |
| 2026-04-25 03:57 | -5.80493 | 105.85382 | 13135 ft | 407 kts | 128° |
| 2026-04-25 03:57 | -5.82293 | 105.87574 | 12766 ft | 405 kts | 128° |
| 2026-04-25 03:57 | -5.84065 | 105.89732 | 12404 ft | 395 kts | 128° |
| 2026-04-25 03:57 | -5.85794 | 105.91837 | 11973 ft | 386 kts | 128° |
| 2026-04-25 03:58 | -5.87485 | 105.93896 | 11554 ft | 378 kts | 128° |
| 2026-04-25 03:58 | -5.89143 | 105.95916 | 11133 ft | 371 kts | 128° |
| 2026-04-25 03:58 | -5.90770 | 105.97898 | 10726 ft | 365 kts | 128° |
| 2026-04-25 03:58 | -5.92371 | 105.99849 | 10444 ft | 356 kts | 128° |
| 2026-04-25 03:59 | -5.93917 | 106.01734 | 10245 ft | 341 kts | 128° |
| 2026-04-25 03:59 | -5.95362 | 106.03493 | 10110 ft | 320 kts | 128° |
| 2026-04-25 03:59 | -5.96736 | 106.05167 | 9975 ft | 302 kts | 127° |
| 2026-04-25 03:59 | -5.98045 | 106.06761 | 9969 ft | 287 kts | 127° |
| 2026-04-25 04:00 | -5.99304 | 106.08297 | 9494 ft | 290 kts | 127° |
| 2026-04-25 04:00 | -6.00576 | 106.09850 | 9087 ft | 285 kts | 127° |
| 2026-04-25 04:00 | -6.01818 | 106.11367 | 8754 ft | 277 kts | 127° |
| 2026-04-25 04:00 | -6.03042 | 106.12859 | 8460 ft | 275 kts | 127° |
| 2026-04-25 04:01 | -6.04255 | 106.14340 | 8169 ft | 274 kts | 127° |
| 2026-04-25 04:01 | -6.05462 | 106.15814 | 7882 ft | 273 kts | 127° |
| 2026-04-25 04:01 | -6.06670 | 106.17288 | 7591 ft | 273 kts | 127° |
| 2026-04-25 04:01 | -6.07858 | 106.18739 | 7310 ft | 272 kts | 127° |
| 2026-04-25 04:02 | -6.09066 | 106.20212 | 7015 ft | 272 kts | 127° |
| 2026-04-25 04:02 | -6.10263 | 106.21675 | 6731 ft | 271 kts | 127° |
| 2026-04-25 04:02 | -6.11461 | 106.23136 | 6453 ft | 271 kts | 127° |
| 2026-04-25 04:02 | -6.12654 | 106.24592 | 6231 ft | 267 kts | 127° |
| 2026-04-25 04:03 | -6.13820 | 106.26015 | 6087 ft | 261 kts | 127° |
| 2026-04-25 04:03 | -6.14960 | 106.27406 | 5958 ft | 251 kts | 127° |
| 2026-04-25 04:03 | -6.16040 | 106.28723 | 5842 ft | 239 kts | 127° |
| 2026-04-25 04:03 | -6.17079 | 106.29991 | 5743 ft | 229 kts | 126° |
| 2026-04-25 04:04 | -6.18059 | 106.31188 | 5572 ft | 222 kts | 126° |
| 2026-04-25 04:04 | -6.19039 | 106.32384 | 5355 ft | 215 kts | 126° |
| 2026-04-25 04:04 | -6.19966 | 106.33514 | 5121 ft | 209 kts | 126° |
| 2026-04-25 04:04 | -6.20843 | 106.34665 | 4924 ft | 200 kts | 120° |
| 2026-04-25 04:05 | -6.21558 | 106.35806 | 4753 ft | 192 kts | 119° |
| 2026-04-25 04:05 | -6.22245 | 106.36926 | 4594 ft | 184 kts | 119° |
| 2026-04-25 04:05 | -6.22907 | 106.37999 | 4440 ft | 178 kts | 119° |
| 2026-04-25 04:05 | -6.23535 | 106.39055 | 4319 ft | 175 kts | 111° |
| 2026-04-25 04:06 | -6.23570 | 106.40241 | 4180 ft | 173 kts | 72° |
| 2026-04-25 04:06 | -6.23258 | 106.41213 | 4074 ft | 173 kts | 74° |
| 2026-04-25 04:06 | -6.22895 | 106.42369 | 3938 ft | 174 kts | 72° |
| 2026-04-25 04:06 | -6.22486 | 106.43519 | 3798 ft | 176 kts | 70° |
| 2026-04-25 04:07 | -6.22052 | 106.44664 | 3671 ft | 176 kts | 70° |
| 2026-04-25 04:07 | -6.21612 | 106.45789 | 3528 ft | 175 kts | 69° |
| 2026-04-25 04:07 | -6.21164 | 106.46923 | 3475 ft | 174 kts | 70° |
| 2026-04-25 04:07 | -6.20723 | 106.48039 | 3272 ft | 173 kts | 69° |
| 2026-04-25 04:08 | -6.20275 | 106.49167 | 3062 ft | 173 kts | 70° |
| 2026-04-25 04:08 | -6.19833 | 106.50283 | 2826 ft | 171 kts | 69° |
| 2026-04-25 04:08 | -6.19398 | 106.51381 | 2628 ft | 169 kts | 69° |
| 2026-04-25 04:08 | -6.18959 | 106.52491 | 2394 ft | 170 kts | 69° |
| 2026-04-25 04:09 | -6.18531 | 106.53571 | 2190 ft | 163 kts | 69° |
| 2026-04-25 04:09 | -6.18117 | 106.54615 | 2005 ft | 159 kts | 69° |
| 2026-04-25 04:09 | -6.17709 | 106.55642 | 1787 ft | 160 kts | 70° |
| 2026-04-25 04:09 | -6.17437 | 106.56334 | 1636 ft | 158 kts | 69° |
| 2026-04-25 04:10 | -6.17037 | 106.57350 | 1472 ft | 155 kts | 68° |
| 2026-04-25 04:10 | -6.16647 | 106.58327 | 1249 ft | 150 kts | 68° |
| 2026-04-25 04:10 | -6.16263 | 106.59295 | 1053 ft | 147 kts | 69° |
| 2026-04-25 04:10 | -6.15890 | 106.60236 | 872 ft | 144 kts | 67° |
| 2026-04-25 04:11 | -6.15158 | 106.62085 | 512 ft | 137 kts | 65° |
| 2026-04-25 04:11 | -6.14813 | 106.62946 | 351 ft | 134 kts | 64° |
| 2026-04-25 04:11 | -6.14460 | 106.63824 | 222 ft | 138 kts | 66° |
| 2026-04-25 04:12 | -6.14105 | 106.64723 | 92 ft | 129 kts | 65° |
| 2026-04-25 04:12 | -6.13793 | 106.65511 | 38 ft | 112 kts | 65° |
| 2026-04-25 04:12 | -6.13550 | 106.66103 | 36 ft | 70 kts | 69° |
| 2026-04-25 04:12 | -6.13418 | 106.66443 | 38 ft | 44 kts | 68° |
| 2026-04-25 04:13 | -6.13246 | 106.66662 | 39 ft | 29 kts | 41° |
| 2026-04-25 04:13 | -6.13107 | 106.66737 | 37 ft | 20 kts | 61° |
| 2026-04-25 04:13 | -6.13054 | 106.66866 | 37 ft | 20 kts | 68° |
| 2026-04-25 04:13 | -6.13004 | 106.66993 | 37 ft | 19 kts | 68° |
| 2026-04-25 04:14 | -6.12956 | 106.67113 | 37 ft | 18 kts | 68° |
| 2026-04-25 04:14 | -6.12908 | 106.67232 | 37 ft | 18 kts | 68° |
| 2026-04-25 04:14 | -6.12862 | 106.67346 | 36 ft | 17 kts | 71° |
| 2026-04-25 04:14 | -6.12814 | 106.67458 | 35 ft | 18 kts | 60° |
| 2026-04-25 04:15 | -6.12744 | 106.67577 | 35 ft | 21 kts | 59° |
| 2026-04-25 04:15 | -6.12669 | 106.67706 | 35 ft | 22 kts | 58° |
| 2026-04-25 04:15 | -6.12556 | 106.67814 | 36 ft | 22 kts | 31° |
| 2026-04-25 04:15 | -6.12408 | 106.67853 | 35 ft | 22 kts | 1° |
| 2026-04-25 04:16 | -6.12256 | 106.67821 | 34 ft | 22 kts | 339° |
| 2026-04-25 04:16 | -6.12107 | 106.67763 | 35 ft | 23 kts | 338° |
| 2026-04-25 04:16 | -6.11952 | 106.67701 | 35 ft | 25 kts | 339° |
| 2026-04-25 04:16 | -6.11787 | 106.67637 | 36 ft | 26 kts | 339° |
| 2026-04-25 04:17 | -6.11616 | 106.67570 | 36 ft | 26 kts | 338° |
| 2026-04-25 04:17 | -6.11443 | 106.67501 | 35 ft | 27 kts | 338° |
| 2026-04-25 04:17 | -6.11266 | 106.67430 | 36 ft | 27 kts | 338° |
| 2026-04-25 04:17 | -6.11098 | 106.67347 | 36 ft | 27 kts | 306° |
| 2026-04-25 04:18 | -6.11103 | 106.67167 | 36 ft | 27 kts | 257° |
| 2026-04-25 04:18 | -6.11151 | 106.66977 | 36 ft | 28 kts | 250° |
| 2026-04-25 04:18 | -6.11243 | 106.66874 | 37 ft | 17 kts | 169° |
| 2026-04-25 04:18 | -6.11358 | 106.66921 | 34 ft | 19 kts | 158° |
| 2026-04-25 04:19 | -6.11458 | 106.66907 | 37 ft | 10 kts | 234° |
| 2026-04-25 04:19 | -6.11487 | 106.66838 | 37 ft | 12 kts | 248° |
| 2026-04-25 04:19 | -6.11523 | 106.66749 | 37 ft | 12 kts | 249° |
| 2026-04-25 04:19 | -6.11555 | 106.66670 | 37 ft | 7 kts | 243° |
| 2026-04-25 04:20 | -6.11577 | 106.66663 | 37 ft | 4 kts | 165° |
| 2026-04-25 04:20 | -6.11612 | 106.66675 | 37 ft | 7 kts | 158° |
| 2026-04-25 04:20 | -6.11629 | 106.66682 | 37 ft | 2 kts | 160° |
| 2026-04-25 04:20 | -6.11640 | 106.66686 | 37 ft | 1 kts | 158° |
| 2026-04-25 04:21 | -6.11646 | 106.66688 | 37 ft | 0 kts | 159° |